METAR Data
IDs: Format: Raw Decoded Include TAF

Data at: 1347 UTC 26 Feb 2021

SBGR 261300Z 07006KT 8000 BKN013 22/19 Q1015